Tumwater, Washington
Current Conditions -  °F | °C
As of 6:54 AM on Friday 28 Nov 2014 (Local Time) from KOLM Reporting Station
Overcast Overcast  
Wind Chill: 52°   Ceiling: 3400
Heat Index: 52°   Visibility: 10mi
Dew Point: 50°   Wind: 14mph
Humidity: 93%   Direction: 180°S
Pressure: 29.55"   Gusts: NA
Location:  47.038°N, 122.899°W
Report Text: KOLM 281454Z AUTO 18012KT 10SM FEW008 OVC034 11/10 A2955 RMK AO2 SLP006 60000 T01110100 56021
Loading
Personal Weather Stations






























Interactive Weather Map New forecast layout! Learn more

10-Day Weather Forecast

Advertisements
Track Severe Weather on mobile